Tufão GINGER 1997: trajetória, intensidade e histórico
1/10/1997, 00:00:00
21/09/1997, 12:00:00 – 1/10/1997, 00:00:00
Trajetória histórica
Acompanhe a evolução e o deslocamento de Tufão GINGER em 1997, com a trajetória completa registrada, ventos máximos sustentados de 145 nós, pressão central mínima e cronologia detalhada.
| Data | Hora | Tipo | Ventokm/h | PressãohPa |
|---|---|---|---|---|
| 01/10 | 00:00 | TSTempestade tropical | 100 | -- |
| 30/09 | 21:00 | STSTempestade tropical severa | 105 | -- |
| 30/09 | 18:00 | EXCiclone extratropical | 110 | 980 |
| 30/09 | 15:00 | EXCiclone extratropical | 115 | 982 |
| 30/09 | 12:00 | EXCiclone extratropical | 120 | 984 |
| 30/09 | 09:00 | TTufão | 130 | 982 |
| 30/09 | 06:00 | STSTempestade tropical severa | 140 | 980 |
| 30/09 | 03:00 | TTufão | 140 | 978 |
| 30/09 | 00:00 | STSTempestade tropical severa | 140 | 975 |
| 29/09 | 21:00 | TTufão | 145 | 973 |
| 29/09 | 18:00 | TTufão | 150 | 970 |
| 29/09 | 15:00 | TTufão | 155 | 968 |
| 29/09 | 12:00 | TTufão | 165 | 965 |
| 29/09 | 09:00 | TTufão | 170 | 960 |
| 29/09 | 06:00 | TTufão | 175 | 955 |
| 29/09 | 03:00 | TTufão | 180 | 950 |
| 29/09 | 00:00 | STSupertufão | 185 | 945 |
| 28/09 | 21:00 | STSupertufão | 195 | 940 |
| 28/09 | 18:00 | STSupertufão | 205 | 935 |
| 28/09 | 15:00 | STSupertufão | 205 | 935 |
| 28/09 | 12:00 | STSupertufão | 205 | 935 |
| 28/09 | 09:00 | STSupertufão | 205 | 930 |
| 28/09 | 06:00 | STSupertufão | 205 | 925 |
| 28/09 | 03:00 | STSupertufão | 210 | 925 |
| 28/09 | 00:00 | STSupertufão | 215 | 925 |
| 27/09 | 21:00 | STSupertufão | 230 | 925 |
| 27/09 | 18:00 | STSupertufão | 250 | 925 |
| 27/09 | 15:00 | STSupertufão | 255 | 925 |
| 27/09 | 12:00 | STSupertufão | 260 | 925 |
| 27/09 | 09:00 | STSupertufão | 265 | 930 |
| 27/09 | 06:00 | STSupertufão | 270 | 935 |
| 27/09 | 03:00 | STSupertufão | 270 | 935 |
| 27/09 | 00:00 | STSupertufão | 270 | 935 |
| 26/09 | 21:00 | STSupertufão | 250 | 938 |
| 26/09 | 18:00 | STSupertufão | 230 | 940 |
| 26/09 | 15:00 | STSupertufão | 220 | 943 |
| 26/09 | 12:00 | STSupertufão | 215 | 945 |
| 26/09 | 09:00 | STSupertufão | 185 | 950 |
| 26/09 | 06:00 | TTufão | 155 | 955 |
| 26/09 | 03:00 | TTufão | 150 | 960 |
| 26/09 | 00:00 | TTufão | 140 | 965 |
| 25/09 | 21:00 | TTufão | 135 | 970 |
| 25/09 | 18:00 | STSTempestade tropical severa | 130 | 975 |
| 25/09 | 15:00 | TTufão | 125 | 978 |
| 25/09 | 12:00 | STSTempestade tropical severa | 120 | 980 |
| 25/09 | 09:00 | STSTempestade tropical severa | 115 | 983 |
| 25/09 | 06:00 | STSTempestade tropical severa | 110 | 985 |
| 25/09 | 03:00 | STSTempestade tropical severa | 105 | 988 |
| 25/09 | 00:00 | TSTempestade tropical | 100 | 990 |
| 24/09 | 21:00 | STSTempestade tropical severa | 100 | 992 |
| 24/09 | 18:00 | TSTempestade tropical | 95 | 994 |
| 24/09 | 15:00 | STSTempestade tropical severa | 90 | 996 |
| 24/09 | 12:00 | TSTempestade tropical | 85 | 998 |
| 24/09 | 09:00 | TSTempestade tropical | 80 | 1001 |
| 24/09 | 06:00 | TDDepressão tropical | 75 | 1006 |
| 24/09 | 03:00 | TSTempestade tropical | 70 | 1004 |
| 24/09 | 00:00 | TDDepressão tropical | 65 | 1006 |
| 23/09 | 21:00 | TDDepressão tropical | 60 | 1004 |
| 23/09 | 18:00 | TDDepressão tropical | 55 | 1008 |
| 23/09 | 15:00 | TDDepressão tropical | 55 | 1008 |
| 23/09 | 12:00 | TDDepressão tropical | 55 | 1008 |
| 23/09 | 09:00 | TDDepressão tropical | 50 | 1008 |
| 23/09 | 06:00 | TDDepressão tropical | 45 | 1008 |
| 23/09 | 03:00 | TDDepressão tropical | 45 | 1009 |
| 23/09 | 00:00 | TDDepressão tropical | 45 | 1010 |
| 22/09 | 21:00 | TDDepressão tropical | 45 | -- |
| 22/09 | 18:00 | TDDepressão tropical | 45 | -- |
| 22/09 | 15:00 | TDDepressão tropical | 45 | -- |
| 22/09 | 12:00 | TDDepressão tropical | 35 | -- |
| 22/09 | 09:00 | TDDepressão tropical | 35 | -- |
| 22/09 | 06:00 | TDDepressão tropical | 35 | -- |
| 22/09 | 03:00 | TDDepressão tropical | 35 | -- |
| 22/09 | 00:00 | TDDepressão tropical | 30 | -- |
| 21/09 | 21:00 | TDDepressão tropical | 30 | -- |
| 21/09 | 18:00 | TDDepressão tropical | 30 | -- |
| 21/09 | 15:00 | TDDepressão tropical | 30 | -- |
| 21/09 | 12:00 | TDDepressão tropical | 30 | -- |
Cronologia de localização
77 Registos de localizaçãoDetalhes do evento
Ligações das fontes
A localização, a extensão e o estado de cada evento podem ser atualizados em momentos diferentes consoante a fonte. Confirme decisões importantes junto das autoridades oficiais de emergência.
Os registos de eventos provêm da NASA EONET e são complementados por registos de deslizamentos de terra do USGS FDSN. As análises e previsões de tempestades podem utilizar a NOAA NHC ou o JTWC, com registos históricos ATCF da UCAR/NCAR quando disponíveis. As imagens de satélite provêm da NASA Worldview/GIBS (GOES e Himawari) ou da EUMETSAT Meteosat, consoante a cobertura do mapa.
Fontes: NASA EONET · USGS · NOAA NHC · JTWC · UCAR/NCAR ATCF · NASA Worldview/GIBS · EUMETSAT Meteosat · OpenStreetMap contributors